Time;durP1;ratioP1;P1;durP2;ratioP2;P2;SDS_P1;SDS_P2;PMS_P1;PMS_P2;Temp;Humidity;BMP_temperature;BMP_pressure;BME280_temperature;BME280_humidity;BME280_pressure;Samples;Min_cycle;Max_cycle;Signal;HPM_P1;HPM_P2
2022/07/04 00:00:24;;;;;;;10.23;5.35;;;12.30;99.90;;;;;;5112293;28;20079;-64
2022/07/04 00:02:50;;;;;;;;;;;10.30;99.90;;;;;;5112693;28;20441;-64
2022/07/04 00:05:17;;;;;;;8.30;4.70;;;12.20;99.90;;;;;;5112316;28;19924;-67
2022/07/04 00:07:48;;;;;;;9.82;5.38;;;12.00;99.90;;;;;;5112299;28;20333;-64
2022/07/04 00:10:17;;;;;;;7.47;5.40;;;12.30;99.90;;;;;;5110544;28;20134;-68
2022/07/04 00:12:44;;;;;;;8.20;5.05;;;12.50;99.90;;;;;;5112121;28;20044;-64
2022/07/04 00:15:11;;;;;;;7.60;5.03;;;11.90;99.90;;;;;;5110913;28;20056;-65
2022/07/04 00:17:37;;;;;;;11.25;5.35;;;12.20;99.90;;;;;;5112143;28;20073;-65
2022/07/04 00:20:03;;;;;;;;;;;12.00;99.90;;;;;;5111193;28;20055;-64
2022/07/04 00:22:29;;;;;;;10.93;5.70;;;12.10;99.90;;;;;;5112230;28;20026;-64
2022/07/04 00:24:55;;;;;;;13.32;5.90;;;12.10;99.90;;;;;;5112090;28;20200;-65
2022/07/04 00:27:20;;;;;;;7.85;5.18;;;12.20;99.90;;;;;;5112074;28;20052;-64
2022/07/04 00:29:46;;;;;;;10.48;5.82;;;11.80;99.90;;;;;;5112022;28;20054;-67
2022/07/04 00:32:12;;;;;;;8.63;5.80;;;12.70;99.90;;;;;;5110742;28;20537;-64
2022/07/04 00:34:37;;;;;;;14.40;6.28;;;12.10;99.90;;;;;;5112060;28;20043;-64
2022/07/04 00:37:03;;;;;;;9.35;5.90;;;12.00;99.90;;;;;;5111990;28;20105;-63
2022/07/04 00:39:29;;;;;;;9.57;5.50;;;12.10;99.90;;;;;;5111941;28;20464;-64
2022/07/04 00:41:55;;;;;;;;;;;12.30;99.90;;;;;;5112369;28;20134;-63
2022/07/04 00:44:21;;;;;;;7.45;5.18;;;12.80;99.90;;;;;;5111975;28;19924;-66
2022/07/04 00:46:47;;;;;;;10.05;5.93;;;11.80;99.90;;;;;;5111858;28;20043;-67
2022/07/04 00:49:15;;;;;;;8.65;5.53;;;12.10;99.90;;;;;;5110565;28;20071;-64
2022/07/04 00:51:42;;;;;;;9.18;5.65;;;12.30;99.90;;;;;;5111738;28;20110;-67
2022/07/04 00:54:10;;;;;;;9.55;5.78;;;12.20;99.90;;;;;;5113380;28;20109;-64
2022/07/04 00:56:37;;;;;;;14.13;6.38;;;12.00;99.90;;;;;;5115651;28;20396;-63
2022/07/04 00:59:03;;;;;;;9.60;5.68;;;13.10;99.90;;;;;;5115763;28;20051;-67
2022/07/04 01:01:29;;;;;;;9.52;6.45;;;12.20;99.90;;;;;;5115604;28;20048;-64
2022/07/04 01:03:56;;;;;;;9.38;5.97;;;12.00;99.90;;;;;;5115432;28;20369;-64
2022/07/04 01:06:22;;;;;;;9.15;5.75;;;11.90;99.90;;;;;;5115396;28;20208;-68
2022/07/04 01:08:48;;;;;;;11.23;6.45;;;11.80;99.90;;;;;;5115402;28;20546;-65
2022/07/04 01:11:15;;;;;;;12.13;5.72;;;12.70;99.90;;;;;;5115293;28;20387;-64
2022/07/04 01:13:41;;;;;;;9.65;6.43;;;13.20;99.90;;;;;;5115198;28;20048;-64
2022/07/04 01:16:08;;;;;;;12.82;6.32;;;12.90;99.90;;;;;;5115248;28;20135;-65
2022/07/04 01:18:34;;;;;;;9.38;6.15;;;11.80;99.90;;;;;;5115209;28;20100;-65
2022/07/04 01:21:00;;;;;;;12.73;6.38;;;12.50;99.90;;;;;;5115136;28;20152;-64
2022/07/04 01:23:26;;;;;;;11.95;7.22;;;11.80;99.90;;;;;;5115071;28;20036;-64
2022/07/04 01:25:52;;;;;;;10.23;6.68;;;13.10;99.90;;;;;;5115069;28;20220;-64
2022/07/04 01:28:18;;;;;;;;;;;11.70;99.90;;;;;;5115356;28;20112;-64
2022/07/04 01:30:43;;;;;;;11.10;7.43;;;12.00;99.90;;;;;;5114966;28;19924;-67
2022/07/04 01:33:09;;;;;;;11.10;7.05;;;11.70;99.90;;;;;;5114442;28;20469;-64
2022/07/04 01:35:35;;;;;;;16.00;6.93;;;11.80;99.90;;;;;;5114826;28;20113;-64
2022/07/04 01:38:01;;;;;;;14.57;7.57;;;12.70;99.90;;;;;;5113501;28;20051;-64
2022/07/04 01:40:27;;;;;;;11.68;6.97;;;13.20;99.90;;;;;;5114719;28;20165;-63
2022/07/04 01:42:53;;;;;;;12.07;7.07;;;11.90;99.90;;;;;;5114370;27;20475;-64
2022/07/04 01:45:18;;;;;;;10.88;7.50;;;12.00;99.90;;;;;;5114573;28;20047;-64
2022/07/04 01:47:44;;;;;;;11.63;7.50;;;12.00;99.90;;;;;;5114671;28;20039;-69
2022/07/04 01:50:12;;;;;;;14.10;7.18;;;11.50;99.90;;;;;;5113329;28;20073;-64
2022/07/04 01:52:42;;;;;;;11.20;8.07;;;12.70;99.90;;;;;;5114384;28;20134;-64
2022/07/04 01:55:09;;;;;;;15.52;8.25;;;11.60;99.90;;;;;;5114436;28;20087;-66
2022/07/04 01:57:35;;;;;;;13.07;7.72;;;11.60;99.90;;;;;;5114373;28;20051;-67
2022/07/04 02:02:45;;;;;;;15.05;7.93;;;13.10;99.90;;;;;;5114372;28;20077;-67
2022/07/04 02:05:11;;;;;;;14.02;8.05;;;11.70;99.90;;;;;;5111616;28;20051;-64
2022/07/04 02:07:37;;;;;;;11.07;7.28;;;11.90;99.90;;;;;;5114216;28;20040;-64
2022/07/04 02:10:03;;;;;;;15.07;8.15;;;11.40;99.90;;;;;;5114072;28;20521;-68
2022/07/04 02:15:13;;;;;;;13.50;8.73;;;11.70;99.90;;;;;;5114098;28;20058;-65
2022/07/04 02:17:38;;;;;;;19.08;8.82;;;11.60;99.90;;;;;;5114082;28;20044;-65
2022/07/04 02:20:06;;;;;;;13.85;8.68;;;11.50;99.90;;;;;;5112673;28;20050;-64
2022/07/04 02:22:32;;;;;;;11.95;8.10;;;11.80;99.90;;;;;;5113897;28;20043;-65
2022/07/04 02:24:57;;;;;;;12.90;9.57;;;11.50;99.90;;;;;;5113852;28;20051;-69
2022/07/04 02:27:23;;;;;;;14.38;9.15;;;12.20;99.90;;;;;;5113742;28;20047;-64
2022/07/04 02:29:49;;;;;;;16.60;9.18;;;12.10;99.90;;;;;;5113741;28;20051;-64
2022/07/04 02:32:15;;;;;;;17.77;9.38;;;11.40;99.90;;;;;;5113666;28;20050;-64
2022/07/04 02:34:41;;;;;;;13.65;8.77;;;11.40;99.90;;;;;;5113672;28;20047;-64
2022/07/04 02:37:07;;;;;;;14.82;8.65;;;11.50;99.90;;;;;;5113702;28;20050;-64
2022/07/04 02:39:32;;;;;;;;;;;11.30;99.90;;;;;;5114017;28;20058;-67
2022/07/04 02:41:58;;;;;;;14.68;8.88;;;12.10;99.90;;;;;;5113768;28;19920;-68
2022/07/04 02:44:24;;;;;;;13.90;9.75;;;11.30;99.90;;;;;;5113798;28;20051;-64
2022/07/04 02:46:50;;;;;;;13.63;9.65;;;11.70;99.90;;;;;;5112461;28;20082;-64
2022/07/04 02:49:15;;;;;;;18.88;10.55;;;11.40;99.90;;;;;;5113429;28;20116;-64
2022/07/04 02:51:41;;;;;;;14.50;9.23;;;11.40;99.90;;;;;;5113026;28;20487;-63
2022/07/04 02:54:08;;;;;;;15.88;10.55;;;11.60;99.90;;;;;;5113652;28;20051;-64
2022/07/04 02:56:33;;;;;;;;;;;11.90;99.90;;;;;;5114106;28;20081;-65
2022/07/04 02:58:59;;;;;;;13.38;9.13;;;11.40;99.90;;;;;;5113241;28;19919;-63
2022/07/04 03:01:25;;;;;;;16.38;10.23;;;11.50;99.90;;;;;;5113167;28;20046;-64
2022/07/04 03:03:50;;;;;;;19.35;9.82;;;11.60;99.90;;;;;;5113161;28;20467;-63
2022/07/04 03:06:16;;;;;;;12.75;9.98;;;12.40;99.90;;;;;;5113412;28;20052;-64
2022/07/04 03:08:42;;;;;;;19.00;10.25;;;11.20;99.90;;;;;;5111788;28;20047;-63
2022/07/04 03:11:08;;;;;;;15.77;10.40;;;11.60;99.90;;;;;;5113077;28;20100;-64
2022/07/04 03:13:34;;;;;;;17.98;11.85;;;11.70;99.90;;;;;;5112847;28;20075;-66
2022/07/04 03:16:00;;;;;;;18.77;10.07;;;11.60;99.90;;;;;;5112868;28;20472;-66
2022/07/04 03:18:25;;;;;;;15.95;11.50;;;11.80;99.90;;;;;;5112401;28;20526;-64
2022/07/04 03:20:51;;;;;;;14.75;10.45;;;11.60;99.90;;;;;;5112486;28;20090;-63
2022/07/04 03:23:16;;;;;;;17.77;11.45;;;11.60;99.90;;;;;;5112833;28;20047;-64
2022/07/04 03:25:43;;;;;;;22.77;10.70;;;11.70;99.90;;;;;;5113053;28;20096;-63
2022/07/04 03:28:09;;;;;;;16.48;11.85;;;11.80;99.90;;;;;;5112747;28;20047;-66
2022/07/04 03:30:35;;;;;;;42.38;12.57;;;12.00;99.90;;;;;;5112367;28;20040;-64
2022/07/04 03:33:01;;;;;;;15.60;11.60;;;11.90;99.90;;;;;;5112548;28;20047;-63
2022/07/04 03:35:26;;;;;;;17.65;11.05;;;11.80;99.90;;;;;;5112709;28;20489;-64
2022/07/04 03:37:52;;;;;;;19.58;12.00;;;11.90;99.90;;;;;;5112547;28;20414;-63
2022/07/04 03:40:19;;;;;;;19.65;12.23;;;11.60;99.90;;;;;;5112605;28;20146;-63
2022/07/04 03:42:45;;;;;;;21.25;12.77;;;11.80;99.90;;;;;;5111238;28;20044;-64
2022/07/04 03:45:11;;;;;;;25.48;12.95;;;11.80;99.90;;;;;;5111199;28;20055;-69
2022/07/04 03:47:37;;;;;;;18.67;12.30;;;12.20;99.90;;;;;;5111346;28;20047;-65
2022/07/04 03:50:03;;;;;;;18.38;12.38;;;12.00;99.90;;;;;;5112453;28;20062;-65
2022/07/04 03:52:29;;;;;;;21.33;12.07;;;12.00;99.90;;;;;;5112088;28;20491;-64
2022/07/04 03:54:55;;;;;;;19.45;12.60;;;12.10;99.90;;;;;;5112338;28;20080;-63
2022/07/04 03:57:20;;;;;;;15.35;11.95;;;11.80;99.90;;;;;;5112305;28;20083;-64
2022/07/04 03:59:46;;;;;;;22.50;13.02;;;13.40;99.90;;;;;;5112274;28;20165;-63
2022/07/04 04:02:12;;;;;;;19.52;12.95;;;12.10;99.90;;;;;;5094337;28;20048;-66
2022/07/04 04:07:22;;;;;;;24.00;12.95;;;12.30;99.90;;;;;;5112319;28;20556;-63
2022/07/04 04:09:48;;;;;;;;;;;12.40;99.90;;;;;;5112491;28;20127;-64
2022/07/04 04:12:13;;;;;;;21.95;12.75;;;12.10;99.90;;;;;;5112156;28;20022;-63
2022/07/04 04:14:39;;;;;;;23.33;13.10;;;12.40;99.90;;;;;;5112167;28;20104;-64
2022/07/04 04:17:05;;;;;;;17.20;12.43;;;12.30;99.90;;;;;;5112216;28;20050;-64
2022/07/04 04:19:31;;;;;;;18.35;13.00;;;12.00;99.90;;;;;;5112099;28;20036;-63
2022/07/04 04:21:56;;;;;;;27.60;13.20;;;12.20;99.90;;;;;;5112182;28;20075;-64
2022/07/04 04:24:22;;;;;;;24.50;13.25;;;12.40;99.90;;;;;;5110884;28;20047;-64
2022/07/04 04:26:47;;;;;;;24.73;13.40;;;12.40;99.90;;;;;;5112029;28;20048;-64
2022/07/04 04:29:13;;;;;;;26.23;13.77;;;13.60;99.90;;;;;;5113898;28;20051;-68
2022/07/04 04:31:39;;;;;;;19.40;12.98;;;12.10;99.90;;;;;;5116077;28;20461;-66
2022/07/04 04:34:05;;;;;;;19.95;13.57;;;12.50;99.90;;;;;;5115961;28;20054;-64
2022/07/04 04:36:30;;;;;;;23.70;13.88;;;12.60;99.90;;;;;;5116032;28;20046;-64
2022/07/04 04:38:56;;;;;;;25.58;13.40;;;12.60;99.90;;;;;;5116055;28;20128;-63
2022/07/04 04:41:22;;;;;;;17.50;13.40;;;13.10;99.90;;;;;;5115908;28;20396;-64
2022/07/04 04:43:48;;;;;;;21.85;13.98;;;12.90;99.90;;;;;;5115903;27;20483;-64
2022/07/04 04:46:14;;;;;;;20.70;13.35;;;12.60;99.90;;;;;;5114772;28;20039;-63
2022/07/04 04:48:40;;;;;;;20.67;14.13;;;12.90;99.90;;;;;;5116044;28;20089;-66
2022/07/04 04:51:05;;;;;;;28.30;14.13;;;13.60;99.90;;;;;;5115957;28;20075;-64
2022/07/04 04:53:31;;;;;;;22.73;14.88;;;13.00;99.90;;;;;;5115650;28;20498;-63
2022/07/04 04:55:57;;;;;;;23.48;13.43;;;12.90;99.90;;;;;;5115302;28;20044;-64
2022/07/04 04:58:23;;;;;;;22.38;13.50;;;13.20;99.90;;;;;;5115602;28;20039;-64
2022/07/04 05:00:49;;;;;;;20.98;13.93;;;13.40;99.90;;;;;;5115841;28;20065;-63
2022/07/04 05:03:18;;;;;;;24.75;14.55;;;13.30;99.90;;;;;;5115499;28;20558;-65
2022/07/04 05:05:45;;;;;;;27.13;14.73;;;13.60;99.90;;;;;;5115365;28;20047;-64
2022/07/04 05:08:14;;;;;;;25.30;14.05;;;13.40;99.90;;;;;;5115466;28;20509;-66
2022/07/04 05:10:40;;;;;;;24.00;14.65;;;13.40;99.90;;;;;;5115264;27;20066;-66
2022/07/04 05:13:06;;;;;;;23.38;14.13;;;13.80;99.90;;;;;;5115245;27;20051;-67
2022/07/04 05:15:32;;;;;;;;;;;14.20;99.90;;;;;;5115667;28;20051;-65
2022/07/04 05:17:58;;;;;;;20.17;13.43;;;14.00;99.90;;;;;;5115176;28;20256;-64
2022/07/04 05:20:23;;;;;;;18.98;13.27;;;14.10;99.90;;;;;;5115163;28;20086;-63
2022/07/04 05:22:49;;;;;;;18.05;13.90;;;14.00;99.90;;;;;;5113763;28;20157;-63
2022/07/04 05:25:15;;;;;;;18.45;13.75;;;14.10;99.90;;;;;;5115142;28;20051;-66
2022/07/04 05:27:41;;;;;;;24.67;14.88;;;14.70;99.90;;;;;;5113913;28;20459;-63
2022/07/04 05:30:07;;;;;;;20.40;13.30;;;15.00;99.90;;;;;;5114984;28;20039;-63
2022/07/04 05:32:33;;;;;;;21.08;12.93;;;15.10;99.90;;;;;;5114838;28;20124;-63
2022/07/04 05:34:58;;;;;;;18.63;12.20;;;14.90;99.90;;;;;;5115150;28;20421;-63
2022/07/04 05:37:24;;;;;;;19.20;12.43;;;15.00;99.90;;;;;;5114842;28;20406;-62
2022/07/04 05:39:51;;;;;;;18.45;13.27;;;15.20;99.90;;;;;;5114692;28;20403;-64
2022/07/04 05:42:16;;;;;;;;;;;14.90;99.90;;;;;;5115211;28;20040;-63
2022/07/04 05:44:42;;;;;;;18.33;11.45;;;15.10;99.90;;;;;;5114665;28;19930;-66
2022/07/04 05:47:09;;;;;;;;;;;15.10;99.90;;;;;;5115069;28;20544;-64
2022/07/04 05:49:34;;;;;;;15.25;11.05;;;15.30;99.90;;;;;;5114434;28;19942;-64
2022/07/04 05:52:00;;;;;;;15.10;10.40;;;16.00;99.90;;;;;;5114143;28;20130;-68
2022/07/04 05:54:26;;;;;;;16.90;11.50;;;15.30;99.90;;;;;;5114481;28;20135;-64
2022/07/04 05:56:51;;;;;;;21.10;11.80;;;15.60;99.90;;;;;;5114429;27;20429;-63
2022/07/04 05:59:17;;;;;;;;;;;15.60;99.90;;;;;;5114859;28;20103;-63
2022/07/04 06:01:43;;;;;;;14.63;9.88;;;15.70;99.90;;;;;;5114309;27;19923;-64
2022/07/04 06:04:09;;;;;;;14.63;9.40;;;16.00;99.90;;;;;;5114300;28;20043;-66
2022/07/04 06:06:34;;;;;;;;;;;16.00;99.90;;;;;;5114382;28;20100;-63
2022/07/04 06:09:01;;;;;;;12.95;7.68;;;16.50;99.90;;;;;;5114143;28;19924;-63
2022/07/04 06:11:27;;;;;;;12.02;7.32;;;16.70;99.90;;;;;;5112441;28;20056;-63
2022/07/04 06:13:52;;;;;;;9.98;6.85;;;16.30;99.90;;;;;;5113739;28;20047;-63
2022/07/04 06:16:18;;;;;;;;;;;16.80;99.90;;;;;;5114514;28;20083;-63
2022/07/04 06:18:45;;;;;;;8.30;5.40;;;17.10;99.90;;;;;;5112772;28;19981;-65
2022/07/04 06:21:11;;;;;;;10.35;5.15;;;17.30;99.90;;;;;;5113956;28;20055;-63
2022/07/04 06:23:36;;;;;;;;;;;17.20;99.90;;;;;;5114391;28;20047;-63
2022/07/04 06:26:03;;;;;;;9.30;4.50;;;17.50;99.90;;;;;;5113908;28;20356;-63
2022/07/04 06:28:29;;;;;;;6.50;4.00;;;17.30;99.90;;;;;;5113788;28;20127;-63
2022/07/04 06:30:55;;;;;;;9.13;4.53;;;17.70;99.90;;;;;;5114112;27;20044;-62
2022/07/04 06:33:21;;;;;;;8.95;4.18;;;17.20;99.90;;;;;;5113449;28;20043;-66
2022/07/04 06:35:49;;;;;;;;;;;17.60;99.90;;;;;;5114039;28;20122;-68
2022/07/04 06:38:19;;;;;;;7.95;4.85;;;17.50;99.90;;;;;;5113306;28;20372;-62
2022/07/04 06:40:46;;;;;;;7.55;4.45;;;17.40;99.90;;;;;;5113671;28;20044;-63
2022/07/04 06:43:12;;;;;;;7.90;4.70;;;17.60;99.90;;;;;;5113158;28;20509;-63
2022/07/04 06:45:38;;;;;;;;;;;17.40;99.90;;;;;;5113762;28;20070;-62
2022/07/04 06:48:05;;;;;;;15.85;4.47;;;17.60;99.90;;;;;;5113570;28;20352;-63
2022/07/04 06:50:34;;;;;;;9.15;4.20;;;17.90;99.90;;;;;;5113454;28;20089;-63
2022/07/04 06:53:04;;;;;;;7.43;3.75;;;18.10;99.90;;;;;;5112775;28;20053;-63
2022/07/04 06:55:31;;;;;;;6.50;3.80;;;17.80;99.90;;;;;;5113564;28;20043;-63
2022/07/04 07:05:18;;;;;;;6.20;3.30;;;17.50;99.90;;;;;;5109748;27;20481;-63
2022/07/04 07:07:43;;;;;;;;;;;17.50;99.90;;;;;;5113071;28;20051;-63
2022/07/04 07:10:09;;;;;;;8.07;3.70;;;17.50;99.90;;;;;;5105757;28;20366;-69
2022/07/04 07:12:35;;;;;;;;;;;18.00;99.90;;;;;;5108183;28;20109;-63
2022/07/04 07:15:01;;;;;;;19.67;2.90;;;18.20;99.90;;;;;;5109320;28;19975;-63
2022/07/04 07:17:27;;;;;;;8.65;2.63;;;18.20;99.90;;;;;;5109166;28;20121;-63
2022/07/04 07:19:54;;;;;;;4.70;2.40;;;18.50;99.90;;;;;;5104023;28;20075;-65
2022/07/04 07:22:19;;;;;;;5.65;2.10;;;18.20;99.90;;;;;;5107510;28;20044;-63
2022/07/04 07:24:45;;;;;;;;;;;18.00;99.90;;;;;;5107434;28;20442;-63
2022/07/04 07:27:11;;;;;;;7.60;1.80;;;18.20;99.90;;;;;;5109645;28;20012;-62
2022/07/04 07:29:37;;;;;;;;;;;17.90;99.90;;;;;;5109819;28;20052;-66
2022/07/04 07:32:04;;;;;;;3.95;1.70;;;17.80;99.90;;;;;;5108097;28;19920;-63
2022/07/04 07:34:29;;;;;;;2.85;1.50;;;17.80;99.90;;;;;;5109255;28;20040;-63
2022/07/04 07:36:55;;;;;;;;;;;18.60;99.90;;;;;;5108585;28;20055;-64
2022/07/04 07:39:21;;;;;;;7.80;1.98;;;18.70;99.90;;;;;;5109193;28;19998;-63
2022/07/04 07:41:47;;;;;;;3.65;1.63;;;18.50;99.90;;;;;;5105754;28;20046;-67
2022/07/04 07:44:13;;;;;;;4.50;1.80;;;18.80;99.90;;;;;;5107505;28;20115;-63
2022/07/04 07:46:39;;;;;;;4.80;1.83;;;18.60;99.90;;;;;;5107058;28;20039;-64
2022/07/04 07:49:05;;;;;;;5.50;1.80;;;18.70;99.90;;;;;;5107250;28;20476;-67
2022/07/04 07:51:31;;;;;;;3.28;1.20;;;18.70;99.90;;;;;;5107495;28;20046;-62
2022/07/04 07:53:57;;;;;;;2.97;1.20;;;18.80;99.90;;;;;;5106349;28;20131;-73
2022/07/04 07:56:23;;;;;;;2.92;1.40;;;18.20;99.90;;;;;;5100717;28;20051;-63
2022/07/04 07:58:49;;;;;;;5.70;1.38;;;18.40;99.90;;;;;;5107097;28;20508;-61
2022/07/04 08:01:15;;;;;;;1.77;1.65;;;18.40;99.90;;;;;;5106566;28;20457;-64
2022/07/04 08:06:25;;;;;;;3.85;1.35;;;18.30;99.90;;;;;;5100375;28;20055;-61
2022/07/04 08:08:51;;;;;;;2.92;1.40;;;18.80;99.90;;;;;;5106578;28;20115;-61
2022/07/04 08:11:17;;;;;;;2.80;1.05;;;19.00;99.90;;;;;;5104909;28;20491;-62
2022/07/04 08:13:43;;;;;;;4.82;1.55;;;19.00;99.90;;;;;;5106318;28;20078;-59
2022/07/04 08:16:09;;;;;;;2.70;1.20;;;18.80;99.90;;;;;;5094937;28;20083;-61
2022/07/04 08:18:35;;;;;;;3.63;1.33;;;19.00;99.90;;;;;;5092163;28;20084;-60
2022/07/04 08:21:01;;;;;;;4.18;1.40;;;19.00;99.90;;;;;;5092803;28;20071;-61
2022/07/04 08:23:29;;;;;;;2.05;1.20;;;19.00;99.90;;;;;;5092699;28;20049;-64
2022/07/04 08:25:55;;;;;;;6.88;1.83;;;19.30;99.90;;;;;;5091536;28;20070;-76
2022/07/04 08:28:20;;;;;;;2.63;1.20;;;19.60;99.90;;;;;;5092044;28;20546;-62
2022/07/04 08:30:46;;;;;;;3.10;1.20;;;19.60;99.90;;;;;;5089271;28;20044;-63
2022/07/04 08:33:12;;;;;;;3.20;1.20;;;20.00;99.90;;;;;;5092747;28;20063;-64
2022/07/04 08:35:37;;;;;;;3.90;1.17;;;20.00;99.90;;;;;;5093158;28;20475;-64
2022/07/04 08:38:03;;;;;;;4.78;1.30;;;19.70;99.90;;;;;;5092427;28;20040;-63
2022/07/04 08:40:30;;;;;;;3.13;1.60;;;20.10;99.90;;;;;;5092325;28;20479;-62
2022/07/04 08:42:57;;;;;;;5.53;1.20;;;20.00;99.90;;;;;;5092753;28;20048;-63
2022/07/04 08:45:32;;;;;;;2.72;1.10;;;19.80;99.90;;;;;;5092867;28;20056;-64
2022/07/04 08:48:09;;;;;;;3.00;1.10;;;20.00;99.90;;;;;;5091456;28;20131;-64
2022/07/04 08:50:34;;;;;;;;;;;19.70;99.90;;;;;;5093247;28;20047;-62
2022/07/04 08:53:06;;;;;;;2.30;1.10;;;19.50;99.90;;;;;;5092342;28;19928;-63
2022/07/04 08:58:29;;;;;;;2.33;1.20;;;19.10;99.90;;;;;;5091778;28;20052;-63
2022/07/04 09:01:05;;;;;;;5.75;1.52;;;19.70;99.90;;;;;;5089269;28;20142;-62
2022/07/04 09:03:31;;;;;;;5.63;1.30;;;19.80;99.90;;;;;;5088963;28;20095;-63
2022/07/04 09:05:58;;;;;;;7.88;1.60;;;19.70;99.90;;;;;;5091786;28;20048;-71
2022/07/04 09:08:25;;;;;;;3.60;1.35;;;19.60;99.90;;;;;;5088123;28;20082;-63
2022/07/04 09:10:52;;;;;;;4.35;1.20;;;19.30;99.90;;;;;;5091638;28;20036;-63
2022/07/04 09:13:18;;;;;;;7.70;1.60;;;19.10;99.90;;;;;;5090837;28;20059;-64
2022/07/04 09:15:49;;;;;;;4.90;1.90;;;18.70;99.90;;;;;;5093490;28;20396;-62
2022/07/04 09:18:29;;;;;;;5.03;1.50;;;18.80;99.90;;;;;;5093537;28;20043;-62
2022/07/04 09:20:57;;;;;;;3.47;1.25;;;18.80;99.90;;;;;;5093434;28;20044;-62
2022/07/04 09:23:25;;;;;;;2.55;1.50;;;18.60;99.90;;;;;;5092617;28;20105;-63
2022/07/04 09:26:10;;;;;;;4.32;1.50;;;19.40;99.90;;;;;;5091250;28;20555;-64
2022/07/04 09:28:38;;;;;;;3.53;1.48;;;19.20;99.90;;;;;;5096105;28;20081;-63
2022/07/04 09:31:24;;;;;;;4.55;1.60;;;20.20;99.90;;;;;;5093365;28;20060;-65
2022/07/04 09:33:53;;;;;;;3.95;1.40;;;20.50;99.90;;;;;;5093190;28;20040;-63
2022/07/04 09:36:23;;;;;;;2.97;1.58;;;20.60;99.90;;;;;;5093416;28;20051;-64
2022/07/04 09:39:09;;;;;;;4.05;1.70;;;20.30;99.90;;;;;;5093407;28;20048;-69
2022/07/04 09:41:55;;;;;;;5.28;1.70;;;21.10;99.90;;;;;;5093381;28;20048;-63
2022/07/04 09:44:21;;;;;;;3.72;1.60;;;20.60;99.90;;;;;;5093449;28;20059;-64
2022/07/04 09:46:47;;;;;;;2.80;1.40;;;21.00;99.90;;;;;;5093135;28;20052;-64
2022/07/04 09:49:13;;;;;;;4.28;1.45;;;21.10;99.90;;;;;;5092699;28;20407;-64
2022/07/04 09:51:49;;;;;;;4.65;1.70;;;21.40;99.90;;;;;;5093045;28;20044;-63
2022/07/04 09:54:24;;;;;;;5.68;1.60;;;21.20;99.90;;;;;;5093063;28;20137;-64
2022/07/04 09:56:55;;;;;;;3.33;1.40;;;21.60;99.90;;;;;;5093057;28;20055;-64
2022/07/04 09:59:21;;;;;;;3.40;1.60;;;21.20;99.90;;;;;;5093004;28;20048;-63
2022/07/04 10:01:47;;;;;;;3.60;1.38;;;21.00;99.90;;;;;;5091586;28;20047;-67
2022/07/04 10:04:13;;;;;;;3.67;1.30;;;21.00;99.90;;;;;;5092399;28;20609;-69
2022/07/04 10:06:41;;;;;;;3.10;1.40;;;21.20;99.90;;;;;;5092753;28;20048;-64
2022/07/04 10:09:14;;;;;;;5.18;1.70;;;21.30;99.90;;;;;;5092594;28;20109;-63
2022/07/04 10:11:42;;;;;;;6.78;2.08;;;21.70;99.90;;;;;;5092784;28;20052;-64
2022/07/04 10:14:10;;;;;;;6.60;1.70;;;21.10;99.90;;;;;;5092637;28;20046;-68
2022/07/04 10:16:38;;;;;;;7.30;1.80;;;20.50;99.90;;;;;;5092842;28;20093;-64
2022/07/04 10:19:05;;;;;;;7.57;2.17;;;19.70;99.90;;;;;;5092574;28;20492;-67
2022/07/04 10:21:31;;;;;;;4.00;1.80;;;19.70;99.90;;;;;;5092520;28;20050;-64
2022/07/04 10:23:57;;;;;;;5.55;1.85;;;20.40;99.90;;;;;;5092437;28;20455;-63
2022/07/04 10:26:23;;;;;;;3.05;1.50;;;20.30;99.90;;;;;;5092318;28;20390;-63
2022/07/04 10:28:51;;;;;;;8.68;1.77;;;20.20;99.90;;;;;;5091866;28;20044;-65
2022/07/04 10:31:20;;;;;;;4.50;1.30;;;20.00;99.90;;;;;;5092243;28;20040;-63
2022/07/04 10:33:47;;;;;;;6.85;1.60;;;20.20;99.90;;;;;;5089412;28;20036;-64
2022/07/04 10:36:21;;;;;;;2.53;1.10;;;20.40;99.90;;;;;;5090811;28;20044;-64
2022/07/04 10:38:48;;;;;;;3.22;1.30;;;21.20;99.90;;;;;;5092064;28;20046;-63
2022/07/04 10:41:14;;;;;;;5.15;1.50;;;21.50;99.90;;;;;;5087311;28;20035;-63
2022/07/04 10:43:52;;;;;;;4.40;1.33;;;21.30;99.90;;;;;;5090403;28;20507;-66
2022/07/04 10:46:26;;;;;;;2.30;1.40;;;20.60;99.90;;;;;;5090768;28;20048;-63
2022/07/04 10:48:53;;;;;;;2.35;1.40;;;20.50;99.90;;;;;;5089552;28;20491;-64
2022/07/04 10:51:46;;;;;;;4.25;1.58;;;20.00;99.90;;;;;;5090693;28;20055;-66
2022/07/04 10:54:42;;;;;;;9.30;2.00;;;20.30;99.90;;;;;;5069981;28;20041;-64
2022/07/04 10:57:24;;;;;;;6.07;1.40;;;20.40;99.90;;;;;;5070276;28;20102;-62
2022/07/04 10:59:53;;;;;;;5.95;1.70;;;20.30;99.90;;;;;;5071021;28;20991;-64
2022/07/04 11:02:26;;;;;;;5.93;1.50;;;20.20;99.90;;;;;;5071825;28;20126;-63
2022/07/04 11:05:12;;;;;;;9.35;1.90;;;20.20;99.90;;;;;;5070255;28;20053;-64
2022/07/04 11:07:39;;;;;;;3.80;1.42;;;19.80;99.90;;;;;;5071852;28;20057;-64
2022/07/04 11:10:33;;;;;;;7.15;1.30;;;20.50;99.90;;;;;;5071680;28;20075;-64
2022/07/04 11:12:56;;;;;;;3.63;1.55;;;20.80;99.90;;;;;;5071525;28;20159;-64
2022/07/04 11:15:28;;;;;;;4.72;1.70;;;20.90;99.90;;;;;;5071691;28;20455;-69
2022/07/04 11:17:58;;;;;;;3.10;1.38;;;21.30;99.90;;;;;;5071660;28;20052;-64
2022/07/04 11:20:25;;;;;;;4.93;1.98;;;20.80;99.90;;;;;;5071368;28;20512;-64
2022/07/04 11:22:51;;;;;;;5.25;1.40;;;20.40;99.90;;;;;;5071651;28;20049;-64
2022/07/04 11:25:17;;;;;;;5.03;1.77;;;20.70;99.90;;;;;;5071188;28;20041;-67
2022/07/04 11:27:43;;;;;;;3.75;1.40;;;20.50;99.90;;;;;;5071554;28;20078;-64
2022/07/04 11:30:10;;;;;;;4.07;1.65;;;20.90;99.90;;;;;;5071485;28;20496;-64
2022/07/04 11:32:38;;;;;;;4.65;1.50;;;20.60;99.90;;;;;;5071449;28;20516;-64
2022/07/04 11:35:05;;;;;;;6.57;1.35;;;19.90;99.90;;;;;;5071458;28;20045;-64
2022/07/04 11:37:32;;;;;;;2.05;1.20;;;20.00;99.90;;;;;;5071496;28;20110;-64
2022/07/04 11:45:49;;;;;;;3.72;1.30;;;20.80;99.90;;;;;;5071298;28;20079;-64
2022/07/04 11:48:26;;;;;;;5.53;1.65;;;20.80;99.90;;;;;;5071125;28;20084;-69
2022/07/04 11:50:52;;;;;;;4.63;1.40;;;20.70;99.90;;;;;;5073001;28;20072;-64
2022/07/04 11:53:18;;;;;;;3.85;1.33;;;20.80;99.90;;;;;;5075071;28;20044;-63
2022/07/04 11:55:55;;;;;;;8.73;1.52;;;20.50;99.90;;;;;;5075048;28;20091;-66
2022/07/04 11:58:22;;;;;;;5.38;1.30;;;20.70;99.90;;;;;;5075037;28;20094;-64
2022/07/04 12:00:47;;;;;;;3.88;1.20;;;20.30;99.90;;;;;;5074919;28;20048;-64
2022/07/04 12:03:13;;;;;;;2.15;1.25;;;20.10;99.90;;;;;;5074623;28;20442;-64
2022/07/04 12:05:39;;;;;;;5.38;1.45;;;20.20;99.90;;;;;;5074927;28;20075;-65
2022/07/04 12:08:07;;;;;;;2.78;1.50;;;20.30;99.90;;;;;;5074856;28;20060;-68
2022/07/04 12:10:33;;;;;;;5.18;1.50;;;20.10;99.90;;;;;;5074793;28;20040;-64
2022/07/04 12:13:09;;;;;;;4.32;1.40;;;20.10;99.90;;;;;;5074762;28;20079;-67
2022/07/04 12:15:40;;;;;;;1.70;1.10;;;20.60;99.90;;;;;;5074813;28;20048;-69
2022/07/04 12:18:16;;;;;;;6.03;1.58;;;20.20;99.90;;;;;;5074749;28;20056;-65
2022/07/04 12:20:41;;;;;;;4.63;1.42;;;19.80;99.90;;;;;;5074479;28;20045;-64
2022/07/04 12:23:09;;;;;;;3.42;1.40;;;20.10;99.90;;;;;;5074383;28;20059;-65
2022/07/04 12:25:37;;;;;;;3.78;1.30;;;20.20;99.90;;;;;;5074853;28;20052;-70
2022/07/04 12:28:08;;;;;;;4.32;1.60;;;20.30;99.90;;;;;;5074574;28;20048;-64
2022/07/04 12:30:39;;;;;;;1.75;1.15;;;20.00;99.90;;;;;;5074328;28;20041;-66
2022/07/04 12:33:07;;;;;;;1.73;1.30;;;20.40;99.90;;;;;;5074389;28;20111;-64
2022/07/04 12:35:36;;;;;;;9.73;2.25;;;20.00;99.90;;;;;;5073319;28;20446;-64
2022/07/04 12:38:29;;;;;;;6.45;1.60;;;20.20;99.90;;;;;;5074422;28;20059;-65
2022/07/04 12:41:02;;;;;;;5.57;1.40;;;20.40;99.90;;;;;;5074109;28;20050;-65
2022/07/04 12:43:43;;;;;;;5.03;1.60;;;20.20;99.90;;;;;;5074023;28;20181;-65
2022/07/04 12:46:36;;;;;;;3.05;1.50;;;20.50;99.90;;;;;;5074178;28;20129;-64
2022/07/04 12:49:02;;;;;;;3.38;1.30;;;20.40;99.90;;;;;;5072725;28;20060;-66
2022/07/04 12:51:33;;;;;;;3.63;1.27;;;21.10;99.90;;;;;;5073826;28;20484;-67
2022/07/04 12:54:06;;;;;;;4.65;1.40;;;20.90;99.90;;;;;;5074059;28;20052;-65
2022/07/04 12:56:37;;;;;;;5.43;1.60;;;20.30;99.90;;;;;;5076414;28;20604;-66
2022/07/04 12:59:12;;;;;;;7.18;1.70;;;20.70;99.90;;;;;;5091480;28;20404;-64
2022/07/04 13:01:39;;;;;;;3.22;1.55;;;20.20;99.90;;;;;;5093225;28;20488;-65
2022/07/04 13:04:05;;;;;;;10.70;1.63;;;20.10;99.90;;;;;;5092985;28;20071;-65
2022/07/04 13:06:31;;;;;;;2.63;1.25;;;19.80;99.90;;;;;;5093468;28;20055;-68
2022/07/04 13:08:57;;;;;;;4.85;1.27;;;20.10;99.90;;;;;;5093648;28;20105;-65
2022/07/04 13:14:09;;;;;;;;;;;20.50;99.90;;;;;;5093792;28;20083;-65
2022/07/04 13:16:35;;;;;;;2.27;1.30;;;20.30;99.90;;;;;;5093262;28;20511;-65